createdAt,value
2018-03-18T00:00:15.338Z,-0.38
2018-03-18T00:03:19.677Z,-0.38
2018-03-18T00:06:22.977Z,-0.44
2018-03-18T00:09:26.564Z,-0.38
2018-03-18T00:12:30.729Z,-0.36
2018-03-18T00:15:34.013Z,-0.35
2018-03-18T00:18:37.289Z,-0.35
2018-03-18T00:21:40.587Z,-0.34
2018-03-18T00:24:44.622Z,-0.41
2018-03-18T00:27:49.214Z,-0.41
2018-03-18T00:30:54.571Z,-0.50
2018-03-18T00:33:58.907Z,-0.44
2018-03-18T00:37:02.187Z,-0.56
2018-03-18T00:40:06.319Z,-0.63
2018-03-18T00:43:09.651Z,-0.47
2018-03-18T00:46:12.973Z,-0.48
2018-03-18T00:49:16.250Z,-0.44
2018-03-18T00:52:19.537Z,-0.62
2018-03-18T00:55:23.732Z,-0.39
2018-03-18T00:58:27.005Z,-0.49
2018-03-18T01:01:30.415Z,-0.53
2018-03-18T01:04:34.737Z,-0.57
2018-03-18T01:07:38.860Z,-0.49
2018-03-18T01:10:42.164Z,-0.56
2018-03-18T01:13:46.808Z,-0.46
2018-03-18T01:16:50.143Z,-0.47
2018-03-18T01:19:53.501Z,-0.49
2018-03-18T01:22:56.794Z,-0.35
2018-03-18T01:26:00.081Z,-0.34
2018-03-18T01:29:03.361Z,-0.52
2018-03-18T01:32:07.795Z,-0.38
2018-03-18T01:35:11.832Z,-0.58
2018-03-18T01:38:15.117Z,-0.35
2018-03-18T01:41:18.393Z,-0.36
2018-03-18T01:44:22.426Z,-0.44
2018-03-18T01:47:25.895Z,-0.44
2018-03-18T01:50:29.186Z,-0.40
2018-03-18T01:53:32.638Z,-0.35
2018-03-18T01:56:35.916Z,-0.48
2018-03-18T01:59:39.962Z,-0.23
2018-03-18T02:02:43.251Z,-0.23
2018-03-18T02:05:46.526Z,-0.16
2018-03-18T02:08:49.841Z,-0.36
2018-03-18T02:11:53.117Z,-0.50
2018-03-18T02:14:57.145Z,-0.64
2018-03-18T02:18:00.538Z,-0.81
2018-03-18T02:21:03.943Z,-0.82
2018-03-18T02:24:07.211Z,-0.91
2018-03-18T02:27:10.621Z,-1.27
2018-03-18T02:30:14.753Z,-1.30
2018-03-18T02:33:18.033Z,-1.12
2018-03-18T02:36:22.074Z,-1.04
2018-03-18T02:39:25.542Z,-1.13
2018-03-18T02:42:30.412Z,-0.95
2018-03-18T02:45:33.701Z,-0.81
2018-03-18T02:48:36.982Z,-0.75
2018-03-18T02:51:41.022Z,-0.81
2018-03-18T02:54:44.298Z,-0.79
2018-03-18T02:57:50.562Z,-1.12
2018-03-18T03:00:54.601Z,-1.06
2018-03-18T03:03:57.903Z,-1.19
2018-03-18T03:07:01.182Z,-1.01
2018-03-18T03:10:04.786Z,-0.89
2018-03-18T03:13:08.099Z,-0.98
2018-03-18T03:16:11.698Z,-0.92
2018-03-18T03:19:14.970Z,-0.93
2018-03-18T03:22:19.016Z,-0.95
2018-03-18T03:25:22.306Z,-0.93
2018-03-18T03:28:25.581Z,-0.93
2018-03-18T03:31:29.887Z,-0.93
2018-03-18T03:34:33.164Z,-1.19
2018-03-18T03:37:37.380Z,-1.52
2018-03-18T03:40:40.673Z,-1.44
2018-03-18T03:43:43.971Z,-1.29
2018-03-18T03:46:47.248Z,-1.18
2018-03-18T03:49:50.517Z,-1.49
2018-03-18T03:52:54.707Z,-1.51
2018-03-18T03:55:58.314Z,-1.49
2018-03-18T03:59:01.846Z,-1.42
2018-03-18T04:02:05.890Z,-1.34
2018-03-18T04:05:09.178Z,-1.21
2018-03-18T04:08:12.472Z,-1.20
2018-03-18T04:11:15.737Z,-1.15
2018-03-18T04:14:20.209Z,-1.31
2018-03-18T04:17:23.600Z,-1.35
2018-03-18T04:20:26.889Z,-1.55
2018-03-18T04:23:30.167Z,-1.57
2018-03-18T04:26:34.239Z,-1.50
2018-03-18T04:29:37.518Z,-1.54
2018-03-18T04:32:40.807Z,-1.61
2018-03-18T04:35:44.074Z,-1.60
2018-03-18T04:38:47.395Z,-1.68
2018-03-18T04:41:50.690Z,-1.72
2018-03-18T04:44:53.983Z,-1.64
2018-03-18T04:47:57.254Z,-1.74
2018-03-18T04:51:00.584Z,-1.80
2018-03-18T04:54:03.875Z,-1.89
2018-03-18T04:57:08.022Z,-1.84
2018-03-18T05:00:11.402Z,-1.84
2018-03-18T05:03:14.937Z,-1.92
2018-03-18T05:06:18.209Z,-2.05
2018-03-18T05:09:21.486Z,-2.01
2018-03-18T05:12:24.761Z,-1.84
2018-03-18T05:15:28.033Z,-1.91
2018-03-18T05:18:32.136Z,-1.88
2018-03-18T05:21:35.466Z,-1.78
2018-03-18T05:24:38.719Z,-1.87
2018-03-18T05:27:42.010Z,-1.88
2018-03-18T05:30:45.362Z,-1.73
2018-03-18T05:33:48.654Z,-1.70
2018-03-18T05:36:51.946Z,-1.67
2018-03-18T05:39:55.253Z,-1.76
2018-03-18T05:42:58.641Z,-1.95
2018-03-18T05:46:02.081Z,-1.91
2018-03-18T05:49:06.131Z,-2.12
2018-03-18T05:52:09.464Z,-1.99
2018-03-18T05:55:13.004Z,-2.07
2018-03-18T05:58:31.308Z,-1.86
2018-03-18T06:01:35.621Z,-2.00
2018-03-18T06:04:38.969Z,-2.02
2018-03-18T06:07:42.412Z,-1.96
2018-03-18T06:10:45.814Z,-1.94
2018-03-18T06:13:49.108Z,-2.05
2018-03-18T06:16:52.967Z,-2.09
2018-03-18T06:19:56.239Z,-1.95
2018-03-18T06:22:59.550Z,-1.80
2018-03-18T06:26:02.953Z,-1.75
2018-03-18T06:29:06.333Z,-1.63
2018-03-18T06:32:09.619Z,-1.85
2018-03-18T06:35:13.715Z,-1.85
2018-03-18T06:38:17.108Z,-1.71
2018-03-18T06:41:21.178Z,-1.62
2018-03-18T06:44:24.672Z,-1.77
2018-03-18T06:47:28.132Z,-1.88
2018-03-18T06:50:31.544Z,-1.99
2018-03-18T06:53:35.578Z,-1.95
2018-03-18T06:56:39.069Z,-1.78
2018-03-18T06:59:43.122Z,-1.55
2018-03-18T07:02:46.500Z,-1.54
2018-03-18T07:05:49.796Z,-1.70
2018-03-18T07:08:53.196Z,-1.54
2018-03-18T07:11:56.470Z,-1.44
2018-03-18T07:14:59.829Z,-2.07
2018-03-18T07:18:03.097Z,-1.63
2018-03-18T07:21:06.378Z,-1.44
2018-03-18T07:24:09.664Z,-2.10
2018-03-18T07:27:13.694Z,-1.87
2018-03-18T07:30:17.093Z,-1.89
2018-03-18T07:33:20.368Z,-1.62
2018-03-18T07:36:24.513Z,-1.65
2018-03-18T07:39:27.910Z,-1.48
2018-03-18T07:42:31.215Z,-1.50
2018-03-18T07:45:34.536Z,-1.57
2018-03-18T07:48:37.916Z,-1.39
2018-03-18T07:51:41.185Z,-1.54
2018-03-18T07:54:45.220Z,-1.23
2018-03-18T07:57:48.490Z,-1.42
2018-03-18T08:00:52.538Z,-1.58
2018-03-18T08:03:55.827Z,-1.52
2018-03-18T08:06:59.121Z,-1.20
2018-03-18T08:10:03.195Z,-1.06
2018-03-18T08:13:06.647Z,-0.57
2018-03-18T08:16:09.925Z,-0.77
2018-03-18T08:19:14.016Z,-0.89
2018-03-18T08:22:17.368Z,-1.18
2018-03-18T08:25:20.648Z,-1.22
2018-03-18T08:28:23.917Z,-0.74
2018-03-18T08:31:27.513Z,-0.73
2018-03-18T08:34:31.560Z,0.01
2018-03-18T08:37:35.587Z,-0.20
2018-03-18T08:40:38.865Z,-0.09
2018-03-18T08:43:42.911Z,-0.13
2018-03-18T08:46:46.542Z,-0.28
2018-03-18T08:49:49.956Z,0.41
2018-03-18T08:52:53.234Z,-0.01
2018-03-18T08:55:56.945Z,-0.58
2018-03-18T08:59:00.284Z,-0.10
2018-03-18T09:02:04.461Z,0.50
2018-03-18T09:05:07.730Z,0.57
2018-03-18T09:08:11.464Z,0.08
2018-03-18T09:11:15.544Z,0.20
2018-03-18T09:14:18.869Z,0.82
2018-03-18T09:17:22.227Z,0.57
2018-03-18T09:20:25.546Z,0.75
2018-03-18T09:23:28.946Z,1.09
2018-03-18T09:26:32.270Z,0.15
2018-03-18T09:29:35.569Z,-0.30
2018-03-18T09:32:38.896Z,-0.95
2018-03-18T09:35:42.238Z,-0.09
2018-03-18T09:38:46.960Z,-0.01
2018-03-18T09:41:50.365Z,-0.45
2018-03-18T09:44:53.692Z,-0.29
2018-03-18T09:47:56.961Z,0.29
2018-03-18T09:51:00.236Z,0.49
2018-03-18T09:54:04.266Z,0.60
2018-03-18T09:57:08.589Z,0.30
2018-03-18T10:00:22.729Z,0.61
2018-03-18T10:03:26.818Z,-0.19
2018-03-18T10:06:30.092Z,-0.29
2018-03-18T10:09:33.381Z,-0.07
2018-03-18T10:12:36.651Z,0.10
2018-03-18T10:15:39.949Z,0.07
2018-03-18T10:18:43.241Z,0.01
2018-03-18T10:21:47.295Z,0.55
2018-03-18T10:25:16.729Z,0.26
2018-03-18T10:28:20.029Z,1.02
2018-03-18T10:31:23.306Z,0.75
2018-03-18T10:34:26.843Z,0.99
2018-03-18T10:37:30.137Z,1.33
2018-03-18T10:40:33.454Z,0.69
2018-03-18T10:43:37.490Z,0.86
2018-03-18T10:46:41.164Z,1.73
2018-03-18T10:49:46.036Z,2.50
2018-03-18T10:52:49.306Z,2.66
2018-03-18T10:55:52.574Z,2.59
2018-03-18T10:58:55.856Z,1.98
2018-03-18T11:02:04.534Z,1.68
2018-03-18T11:05:08.834Z,1.36
2018-03-18T11:08:12.316Z,0.65
2018-03-18T11:11:16.507Z,0.56
2018-03-18T11:14:19.793Z,0.36
2018-03-18T11:17:23.092Z,0.80
2018-03-18T11:20:26.393Z,0.55
2018-03-18T11:23:30.006Z,0.47
2018-03-18T11:26:33.387Z,0.57
2018-03-18T11:29:36.817Z,1.34
2018-03-18T11:32:40.162Z,0.94
2018-03-18T11:35:44.504Z,0.91
2018-03-18T11:38:48.600Z,0.65
2018-03-18T11:41:52.735Z,0.44
2018-03-18T11:44:56.778Z,0.25
2018-03-18T11:48:00.112Z,0.51
2018-03-18T11:51:03.646Z,0.87
2018-03-18T11:54:07.675Z,0.54
2018-03-18T11:57:10.989Z,0.43
2018-03-18T12:00:14.998Z,0.68
2018-03-18T12:03:18.309Z,0.69
2018-03-18T12:06:21.647Z,0.43
2018-03-18T12:09:26.829Z,0.77
2018-03-18T12:12:30.706Z,0.80
2018-03-18T12:15:34.099Z,0.56
2018-03-18T12:18:37.448Z,1.20
2018-03-18T12:21:41.586Z,1.14
2018-03-18T12:24:44.849Z,0.36
2018-03-18T12:27:48.632Z,0.42
2018-03-18T12:30:51.911Z,0.78
2018-03-18T12:33:55.221Z,1.03
2018-03-18T12:36:58.511Z,0.47
2018-03-18T12:40:21.241Z,0.51
2018-03-18T12:43:30.825Z,0.73
2018-03-18T12:46:35.684Z,0.59
2018-03-18T12:49:39.245Z,0.42
2018-03-18T12:52:42.513Z,0.21
2018-03-18T12:55:45.822Z,0.37
2018-03-18T12:58:49.172Z,0.74
2018-03-18T13:01:52.454Z,0.50
2018-03-18T13:04:56.005Z,0.28
2018-03-18T13:07:59.491Z,0.01
2018-03-18T13:11:02.832Z,-0.29
2018-03-18T13:14:06.210Z,-0.05
2018-03-18T13:17:09.509Z,-0.11
2018-03-18T13:20:12.802Z,0.28
2018-03-18T13:23:16.130Z,0.28
2018-03-18T13:26:19.736Z,0.43
2018-03-18T13:29:23.072Z,0.14
2018-03-18T13:32:26.405Z,0.18
2018-03-18T13:35:29.699Z,0.27
2018-03-18T13:38:32.973Z,0.01
2018-03-18T13:41:37.317Z,-0.46
2018-03-18T13:44:40.903Z,-0.31
2018-03-18T13:47:44.199Z,-0.46
2018-03-18T13:50:48.590Z,-0.16
2018-03-18T13:53:52.150Z,-0.08
2018-03-18T13:57:12.805Z,0.28
2018-03-18T14:00:16.202Z,-0.10
2018-03-18T14:03:20.292Z,-0.30
2018-03-18T14:06:23.826Z,0.12
2018-03-18T14:09:27.662Z,0.10
2018-03-18T14:12:30.983Z,-0.21
2018-03-18T14:15:34.363Z,-0.02
2018-03-18T14:18:37.761Z,-0.19
2018-03-18T14:21:41.810Z,-0.20
2018-03-18T14:24:45.181Z,-0.11
2018-03-18T14:27:48.460Z,-0.18
2018-03-18T14:30:52.526Z,-0.20
2018-03-18T14:33:55.818Z,-0.46
2018-03-18T14:36:59.152Z,-0.83
2018-03-18T14:40:02.582Z,-0.66
2018-03-18T14:43:05.923Z,-0.49
2018-03-18T14:46:09.201Z,-0.60
2018-03-18T14:49:12.475Z,-0.77
2018-03-18T14:52:15.802Z,-0.86
2018-03-18T14:55:20.108Z,-0.81
2018-03-18T14:58:23.405Z,-0.84
2018-03-18T15:01:27.430Z,-0.77
2018-03-18T15:04:30.689Z,-0.69
2018-03-18T15:07:34.757Z,-0.76
2018-03-18T15:10:38.120Z,-0.81
2018-03-18T15:13:41.610Z,-0.67
2018-03-18T15:16:45.775Z,-0.80
2018-03-18T15:19:49.054Z,-0.77
2018-03-18T15:22:52.333Z,-0.89
2018-03-18T15:25:56.363Z,-0.92
2018-03-18T15:28:59.814Z,-0.92
2018-03-18T15:32:03.895Z,-0.86
2018-03-18T15:35:07.221Z,-0.99
2018-03-18T15:38:10.684Z,-1.10
2018-03-18T15:41:13.987Z,-1.16
2018-03-18T15:44:17.270Z,-1.05
2018-03-18T15:47:20.552Z,-1.07
2018-03-18T15:50:24.701Z,-1.21
2018-03-18T15:53:28.009Z,-1.28
2018-03-18T15:56:31.285Z,-1.28
2018-03-18T15:59:34.691Z,-1.30
2018-03-18T16:02:37.995Z,-1.22
2018-03-18T16:05:41.381Z,-1.22
2018-03-18T16:08:44.682Z,-1.14
2018-03-18T16:11:47.972Z,-1.00
2018-03-18T16:14:51.368Z,-0.99
2018-03-18T16:17:54.671Z,-1.06
2018-03-18T16:20:57.975Z,-1.09
2018-03-18T16:24:01.321Z,-1.34
2018-03-18T16:27:04.662Z,-1.43
2018-03-18T16:30:26.659Z,-1.34
2018-03-18T16:33:29.957Z,-1.18
2018-03-18T16:36:33.225Z,-1.03
2018-03-18T16:39:36.597Z,-1.29
2018-03-18T16:42:39.923Z,-1.24
2018-03-18T16:45:43.205Z,-1.43
2018-03-18T16:48:46.495Z,-1.41
2018-03-18T16:51:50.591Z,-1.45
2018-03-18T16:54:54.693Z,-1.63
2018-03-18T16:57:58.821Z,-1.54
2018-03-18T17:01:02.969Z,-1.51
2018-03-18T17:04:06.273Z,-1.33
2018-03-18T17:07:09.561Z,-1.50
2018-03-18T17:10:12.849Z,-1.44
2018-03-18T17:13:16.117Z,-1.49
2018-03-18T17:16:19.440Z,-1.66
2018-03-18T17:19:23.827Z,-1.68
2018-03-18T17:22:28.564Z,-1.64
2018-03-18T17:25:31.857Z,-1.83
2018-03-18T17:28:35.165Z,-1.78
2018-03-18T17:31:39.783Z,-1.86
2018-03-18T17:34:44.218Z,-1.72
2018-03-18T17:37:48.044Z,-1.68
2018-03-18T17:40:51.314Z,-1.91
2018-03-18T17:43:54.682Z,-1.75
2018-03-18T17:47:15.902Z,-1.73
2018-03-18T17:54:14.045Z,-1.87
2018-03-18T17:57:17.369Z,-1.99
2018-03-18T18:00:21.438Z,-1.92
2018-03-18T18:03:24.721Z,-1.98
2018-03-18T18:06:28.003Z,-2.01
2018-03-18T18:09:31.320Z,-2.01
2018-03-18T18:12:35.395Z,-2.02
2018-03-18T18:15:38.692Z,-1.96
2018-03-18T18:18:42.789Z,-1.93
2018-03-18T18:21:46.971Z,-1.88
2018-03-18T18:24:50.636Z,-1.97
2018-03-18T18:27:55.053Z,-2.01
2018-03-18T18:30:58.665Z,-2.00
2018-03-18T18:34:01.993Z,-1.93
2018-03-18T18:37:05.307Z,-2.02
2018-03-18T18:40:08.819Z,-2.00
2018-03-18T18:43:12.985Z,-2.09
2018-03-18T18:46:16.282Z,-2.13
2018-03-18T18:49:19.685Z,-2.16
2018-03-18T18:52:23.014Z,-2.16
2018-03-18T18:55:26.302Z,-2.07
2018-03-18T18:58:29.592Z,-2.12
2018-03-18T19:01:32.937Z,-2.00
2018-03-18T19:04:36.205Z,-2.25
2018-03-18T19:07:39.683Z,-2.30
2018-03-18T19:10:42.959Z,-2.27
2018-03-18T19:13:47.092Z,-2.22
2018-03-18T19:16:50.366Z,-2.34
2018-03-18T19:20:12.144Z,-2.35
2018-03-18T19:23:17.359Z,-2.26
2018-03-18T19:26:21.075Z,-2.26
2018-03-18T19:29:24.417Z,-2.43
2018-03-18T19:32:27.729Z,-2.32
2018-03-18T19:35:31.108Z,-2.26
2018-03-18T19:38:34.389Z,-2.45
2018-03-18T19:41:37.661Z,-2.53
2018-03-18T19:44:41.254Z,-2.53
2018-03-18T19:47:44.763Z,-2.42
2018-03-18T19:50:48.045Z,-2.42
2018-03-18T19:53:52.090Z,-2.63
2018-03-18T19:56:55.774Z,-2.59
2018-03-18T19:59:59.907Z,-2.54
2018-03-18T20:03:03.213Z,-2.46
2018-03-18T20:06:06.493Z,-2.63
2018-03-18T20:09:09.764Z,-2.49
2018-03-18T20:12:13.825Z,-2.41
2018-03-18T20:15:17.117Z,-2.47
2018-03-18T20:18:20.561Z,-2.42
2018-03-18T20:21:23.905Z,-2.39
2018-03-18T20:24:28.663Z,-2.43
2018-03-18T20:27:31.988Z,-2.56
2018-03-18T20:30:35.261Z,-2.63
2018-03-18T20:33:38.555Z,-2.59
2018-03-18T20:36:41.829Z,-2.67
2018-03-18T20:40:05.533Z,-2.64
2018-03-18T20:43:10.335Z,-2.72
2018-03-18T20:46:14.485Z,-2.64
2018-03-18T20:49:18.957Z,-2.48
2018-03-18T20:52:23.885Z,-2.47
2018-03-18T20:55:27.595Z,-2.54
2018-03-18T20:58:31.520Z,-2.64
2018-03-18T21:01:34.917Z,-2.65
2018-03-18T21:04:38.224Z,-2.48
2018-03-18T21:07:49.224Z,-2.42
2018-03-18T21:11:10.000Z,-2.53
2018-03-18T21:14:14.911Z,-2.50
2018-03-18T21:17:19.242Z,-2.45
2018-03-18T21:20:22.568Z,-2.71
2018-03-18T21:23:26.749Z,-2.67
2018-03-18T21:26:30.046Z,-2.80
2018-03-18T21:29:33.393Z,-2.87
2018-03-18T21:32:37.429Z,-2.85
2018-03-18T21:35:40.721Z,-2.89
2018-03-18T21:38:44.030Z,-2.82
2018-03-18T21:41:47.315Z,-2.79
2018-03-18T21:44:50.737Z,-2.73
2018-03-18T21:47:54.120Z,-2.80
2018-03-18T21:50:57.423Z,-2.79
2018-03-18T21:54:00.718Z,-2.74
2018-03-18T21:57:04.006Z,-2.83
2018-03-18T22:00:25.550Z,-2.75
2018-03-18T22:03:29.645Z,-2.84
2018-03-18T22:06:32.981Z,-2.91
2018-03-18T22:09:36.678Z,-2.89
2018-03-18T22:12:39.959Z,-2.73
2018-03-18T22:15:44.011Z,-2.84
2018-03-18T22:18:47.367Z,-2.93
2018-03-18T22:21:50.634Z,-2.86
2018-03-18T22:24:53.902Z,-2.89
2018-03-18T22:27:57.560Z,-2.88
2018-03-18T22:31:00.870Z,-2.88
2018-03-18T22:34:04.153Z,-2.87
2018-03-18T22:37:07.429Z,-3.02
2018-03-18T22:40:11.480Z,-2.85
2018-03-18T22:43:14.801Z,-2.90
2018-03-18T22:46:18.200Z,-2.99
2018-03-18T22:49:21.570Z,-3.02
2018-03-18T22:52:24.845Z,-3.04
2018-03-18T22:55:28.895Z,-2.99
2018-03-18T22:58:34.247Z,-2.96
2018-03-18T23:01:37.633Z,-2.92
2018-03-18T23:04:40.938Z,-2.97
2018-03-18T23:07:44.237Z,-2.90
2018-03-18T23:10:47.516Z,-2.85
2018-03-18T23:13:50.822Z,-2.92
2018-03-18T23:16:54.109Z,-3.08
2018-03-18T23:19:57.400Z,-3.07
2018-03-18T23:23:00.766Z,-2.92
2018-03-18T23:26:04.017Z,-2.86
2018-03-18T23:29:07.280Z,-3.12
2018-03-18T23:32:11.333Z,-3.22
2018-03-18T23:35:14.892Z,-3.18
2018-03-18T23:38:19.056Z,-3.17
2018-03-18T23:41:22.355Z,-3.18
2018-03-18T23:44:25.630Z,-3.24
2018-03-18T23:47:28.903Z,-3.06
2018-03-18T23:50:34.366Z,-2.89
2018-03-18T23:53:37.692Z,-2.80
2018-03-18T23:56:40.969Z,-2.67
2018-03-18T23:59:45.034Z,-2.75
